createdAt,value
2016-05-22T00:00:54.516Z,47.46
2016-05-22T00:01:54.549Z,47.36
2016-05-22T00:02:54.568Z,47.17
2016-05-22T00:03:54.618Z,47.36
2016-05-22T00:04:54.620Z,47.36
2016-05-22T00:05:54.654Z,47.27
2016-05-22T00:06:54.688Z,47.27
2016-05-22T00:07:54.706Z,47.17
2016-05-22T00:08:54.726Z,47.36
2016-05-22T00:09:54.743Z,46.98
2016-05-22T00:10:54.776Z,47.36
2016-05-22T00:11:54.827Z,47.36
2016-05-22T00:12:55.142Z,47.36
2016-05-22T00:13:54.863Z,47.56
2016-05-22T00:14:54.898Z,47.36
2016-05-22T00:15:54.900Z,47.46
2016-05-22T00:16:54.934Z,47.75
2016-05-22T00:17:54.967Z,47.85
2016-05-22T00:18:54.986Z,47.85
2016-05-22T00:19:55.005Z,47.94
2016-05-22T00:20:55.038Z,48.04
2016-05-22T00:21:55.056Z,47.82
2016-05-22T00:22:55.106Z,47.85
2016-05-22T00:23:55.108Z,47.82
2016-05-22T00:24:55.128Z,47.94
2016-05-22T00:25:55.005Z,47.72
2016-05-22T00:26:55.179Z,47.92
2016-05-22T00:27:55.214Z,48.21
2016-05-22T00:28:55.232Z,48.21
2016-05-22T00:29:55.282Z,48.3
2016-05-22T00:30:55.284Z,48.33
2016-05-22T00:31:55.162Z,48.3
2016-05-22T00:32:55.336Z,48.11
2016-05-22T00:33:55.370Z,48.21
2016-05-22T00:34:55.388Z,48.11
2016-05-22T00:35:55.423Z,48.4
2016-05-22T00:36:55.441Z,48.4
2016-05-22T00:37:55.459Z,48.4
2016-05-22T00:38:55.493Z,48.4
2016-05-22T00:39:55.512Z,48.3
2016-05-22T00:40:55.545Z,48.4
2016-05-22T00:41:55.579Z,48.3
2016-05-22T00:42:55.598Z,48.4
2016-05-22T00:43:55.459Z,48.3
2016-05-22T00:44:55.635Z,48.69
2016-05-22T00:45:55.653Z,48.97
2016-05-22T00:46:55.686Z,48.4
2016-05-22T00:47:55.721Z,48.59
2016-05-22T00:48:55.739Z,48.69
2016-05-22T00:49:55.756Z,48.49
2016-05-22T00:50:55.791Z,48.49
2016-05-22T00:51:55.825Z,48.49
2016-05-22T00:52:55.844Z,48.4
2016-05-22T00:53:55.861Z,48.69
2016-05-22T00:54:55.895Z,48.59
2016-05-22T00:55:55.914Z,48.79
2016-05-22T00:56:55.947Z,48.49
2016-05-22T00:57:55.966Z,48.88
2016-05-22T00:58:55.985Z,49.17
2016-05-22T00:59:55.863Z,48.49
2016-05-22T01:00:56.036Z,48.59
2016-05-22T01:01:56.071Z,48.79
2016-05-22T01:02:56.088Z,48.69
2016-05-22T01:03:56.107Z,48.59
2016-05-22T01:04:56.141Z,48.49
2016-05-22T01:05:56.159Z,48.59
2016-05-22T01:06:56.193Z,48.69
2016-05-22T01:07:56.212Z,48.69
2016-05-22T01:08:56.246Z,48.4
2016-05-22T01:09:56.264Z,48.97
2016-05-22T01:10:56.298Z,48.97
2016-05-22T01:11:56.316Z,48.88
2016-05-22T01:12:56.631Z,48.88
2016-05-22T01:13:56.368Z,48.59
2016-05-22T01:14:56.387Z,48.88
2016-05-22T01:15:56.420Z,49.36
2016-05-22T01:16:56.440Z,49.26
2016-05-22T01:17:56.473Z,48.79
2016-05-22T01:18:56.350Z,49.46
2016-05-22T01:19:56.541Z,49.26
2016-05-22T01:20:56.544Z,49.26
2016-05-22T01:21:56.578Z,49.17
2016-05-22T01:22:56.596Z,49.46
2016-05-22T01:23:56.458Z,49.07
2016-05-22T01:24:56.648Z,49.46
2016-05-22T01:25:56.666Z,48.97
2016-05-22T01:26:56.700Z,48.88
2016-05-22T01:27:56.766Z,49.46
2016-05-22T01:28:56.752Z,49.36
2016-05-22T01:29:56.771Z,49.17
2016-05-22T01:30:56.804Z,49.36
2016-05-22T01:31:56.854Z,49.36
2016-05-22T01:32:56.841Z,49.07
2016-05-22T01:33:56.875Z,48.88
2016-05-22T01:34:56.893Z,48.88
2016-05-22T01:35:56.943Z,49.46
2016-05-22T01:36:56.946Z,48.88
2016-05-22T01:37:56.980Z,48.88
2016-05-22T01:38:56.998Z,48.88
2016-05-22T01:39:57.016Z,48.69
2016-05-22T01:40:57.050Z,48.88
2016-05-22T01:41:57.085Z,48.88
2016-05-22T01:42:57.103Z,48.97
2016-05-22T01:43:57.121Z,49.07
2016-05-22T01:44:57.154Z,48.59
2016-05-22T01:45:57.017Z,48.97
2016-05-22T01:46:57.207Z,49.07
2016-05-22T01:47:57.070Z,48.88
2016-05-22T01:48:57.244Z,48.88
2016-05-22T01:49:57.278Z,49.26
2016-05-22T01:50:57.296Z,49.17
2016-05-22T01:51:57.330Z,48.79
2016-05-22T01:52:57.348Z,49.26
2016-05-22T01:53:57.366Z,49.17
2016-05-22T01:54:57.401Z,48.97
2016-05-22T01:55:57.419Z,49.36
2016-05-22T01:56:57.453Z,48.88
2016-05-22T01:57:57.471Z,48.97
2016-05-22T01:58:57.505Z,48.88
2016-05-22T01:59:57.524Z,48.97
2016-05-22T02:00:57.542Z,48.88
2016-05-22T02:01:57.575Z,48.79
2016-05-22T02:02:57.610Z,49.36
2016-05-22T02:03:57.627Z,48.88
2016-05-22T02:04:57.647Z,48.88
2016-05-22T02:05:57.680Z,48.79
2016-05-22T02:06:57.698Z,48.88
2016-05-22T02:07:57.733Z,49.17
2016-05-22T02:08:57.751Z,48.97
2016-05-22T02:09:57.769Z,48.97
2016-05-22T02:10:57.803Z,49.26
2016-05-22T02:11:57.837Z,49.36
2016-05-22T02:12:57.855Z,48.97
2016-05-22T02:13:57.874Z,48.97
2016-05-22T02:14:57.907Z,49.26
2016-05-22T02:15:57.926Z,49.36
2016-05-22T02:16:57.788Z,49.26
2016-05-22T02:17:57.993Z,49.07
2016-05-22T02:18:57.856Z,48.97
2016-05-22T02:19:58.031Z,48.79
2016-05-22T02:20:58.049Z,48.69
2016-05-22T02:21:58.067Z,48.79
2016-05-22T02:22:58.101Z,48.59
2016-05-22T02:23:58.134Z,48.59
2016-05-22T02:24:58.153Z,48.59
2016-05-22T02:25:58.015Z,48.79
2016-05-22T02:26:58.206Z,48.88
2016-05-22T02:27:58.239Z,48.79
2016-05-22T02:28:58.242Z,48.59
2016-05-22T02:29:58.120Z,48.49
2016-05-22T02:30:58.294Z,48.49
2016-05-22T02:31:58.328Z,48.49
2016-05-22T02:32:58.347Z,48.59
2016-05-22T02:33:58.381Z,48.69
2016-05-22T02:34:58.243Z,48.69
2016-05-22T02:35:58.417Z,47.92
2016-05-22T02:36:58.451Z,48.49
2016-05-22T02:37:58.469Z,48.4
2016-05-22T02:38:58.504Z,48.43
2016-05-22T02:39:58.522Z,48.4
2016-05-22T02:40:58.555Z,48.3
2016-05-22T02:41:58.574Z,48.3
2016-05-22T02:42:58.452Z,48.11
2016-05-22T02:43:58.626Z,48.23
2016-05-22T02:44:58.644Z,48.4
2016-05-22T02:45:58.679Z,48.33
2016-05-22T02:46:58.696Z,47.85
2016-05-22T02:47:58.574Z,48.04
2016-05-22T02:48:58.749Z,47.75
2016-05-22T02:49:58.783Z,47.94
2016-05-22T02:50:58.801Z,47.94
2016-05-22T02:51:58.835Z,47.85
2016-05-22T02:52:58.869Z,48.04
2016-05-22T02:53:58.887Z,48.13
2016-05-22T02:54:58.906Z,48.04
2016-05-22T02:55:58.939Z,47.85
2016-05-22T02:56:58.973Z,47.75
2016-05-22T02:57:58.992Z,47.27
2016-05-22T02:58:59.010Z,47.27
2016-05-22T02:59:59.028Z,47.46
2016-05-22T03:00:58.906Z,47.46
2016-05-22T03:01:59.081Z,47.17
2016-05-22T03:02:59.130Z,47.27
2016-05-22T03:03:59.132Z,47.27
2016-05-22T03:04:59.152Z,47.27
2016-05-22T03:05:59.185Z,47.36
2016-05-22T03:06:59.204Z,47.36
2016-05-22T03:07:59.238Z,47.56
2016-05-22T03:08:59.256Z,47.56
2016-05-22T03:09:59.274Z,47.56
2016-05-22T03:10:59.307Z,47.27
2016-05-22T03:11:59.342Z,47.17
2016-05-22T03:12:59.204Z,47.08
2016-05-22T03:13:59.379Z,47.08
2016-05-22T03:14:59.412Z,47.27
2016-05-22T03:15:59.431Z,47.27
2016-05-22T03:16:59.465Z,47.36
2016-05-22T03:17:59.483Z,46.89
2016-05-22T03:18:59.518Z,46.98
2016-05-22T03:19:59.535Z,46.89
2016-05-22T03:20:59.554Z,46.89
2016-05-22T03:21:59.587Z,47.08
2016-05-22T03:22:59.622Z,46.89
2016-05-22T03:23:59.640Z,46.89
2016-05-22T03:24:59.658Z,47.27
2016-05-22T03:25:59.692Z,46.5
2016-05-22T03:26:59.726Z,46.41
2016-05-22T03:27:59.853Z,46.21
2016-05-22T03:28:59.606Z,46.21
2016-05-22T03:29:59.657Z,46.5
2016-05-22T03:30:59.879Z,46.62
2016-05-22T03:31:59.929Z,46.59
2016-05-22T03:32:59.979Z,46.53
2016-05-22T03:33:59.888Z,46.33
2016-05-22T03:35:00.083Z,46.33
2016-05-22T03:36:00.128Z,46.62
2016-05-22T03:37:00.157Z,46.43
2016-05-22T03:38:00.203Z,46.43
2016-05-22T03:39:00.232Z,46.23
2016-05-22T03:40:00.259Z,46.23
2016-05-22T03:41:00.296Z,46.33
2016-05-22T03:42:00.318Z,46.23
2016-05-22T03:43:00.199Z,46.43
2016-05-22T03:44:00.379Z,46.43
2016-05-22T03:45:00.400Z,46.23
2016-05-22T03:46:00.436Z,46.33
2016-05-22T03:47:00.456Z,46.23
2016-05-22T03:48:00.491Z,46.62
2016-05-22T03:49:00.355Z,46.43
2016-05-22T03:50:00.545Z,46.62
2016-05-22T03:51:00.565Z,46.33
2016-05-22T03:52:00.583Z,46.23
2016-05-22T03:53:00.461Z,46.53
2016-05-22T03:54:00.636Z,46.14
2016-05-22T03:55:00.670Z,45.95
2016-05-22T03:56:00.689Z,46.14
2016-05-22T03:57:00.722Z,46.04
2016-05-22T03:58:01.069Z,46.04
2016-05-22T03:59:00.774Z,46.14
2016-05-22T04:00:00.793Z,46.14
2016-05-22T04:01:00.827Z,45.66
2016-05-22T04:02:00.846Z,46.14
2016-05-22T04:03:00.879Z,45.76
2016-05-22T04:04:00.929Z,45.76
2016-05-22T04:05:00.915Z,45.85
2016-05-22T04:06:00.949Z,45.95
2016-05-22T04:07:00.985Z,46.04
2016-05-22T04:08:01.002Z,45.85
2016-05-22T04:09:01.035Z,46.04
2016-05-22T04:10:01.054Z,45.76
2016-05-22T04:11:01.073Z,45.85
2016-05-22T04:12:01.107Z,45.66
2016-05-22T04:13:00.985Z,45.56
2016-05-22T04:14:01.143Z,46.04
2016-05-22T04:15:01.176Z,45.56
2016-05-22T04:16:01.211Z,46.04
2016-05-22T04:17:01.229Z,45.95
2016-05-22T04:18:01.264Z,45.76
2016-05-22T04:19:01.282Z,46.04
2016-05-22T04:20:01.316Z,45.76
2016-05-22T04:21:01.333Z,45.76
2016-05-22T04:22:01.368Z,45.66
2016-05-22T04:23:01.386Z,45.76
2016-05-22T04:24:01.405Z,45.66
2016-05-22T04:25:01.439Z,45.76
2016-05-22T04:26:01.457Z,45.76
2016-05-22T04:27:01.491Z,45.95
2016-05-22T04:28:01.509Z,45.76
2016-05-22T04:29:01.544Z,45.28
2016-05-22T04:30:01.561Z,45.56
2016-05-22T04:31:01.595Z,45.37
2016-05-22T04:32:01.613Z,45.56
2016-05-22T04:33:01.647Z,45.18
2016-05-22T04:34:01.666Z,45.76
2016-05-22T04:35:01.699Z,45.66
2016-05-22T04:36:01.718Z,45.76
2016-05-22T04:37:01.596Z,45.85
2016-05-22T04:38:01.771Z,45.76
2016-05-22T04:39:01.788Z,45.66
2016-05-22T04:40:01.823Z,45.56
2016-05-22T04:41:01.840Z,45.66
2016-05-22T04:42:01.874Z,45.47
2016-05-22T04:43:01.768Z,45.47
2016-05-22T04:44:01.927Z,45.37
2016-05-22T04:45:01.945Z,45.01
2016-05-22T04:46:01.979Z,45.08
2016-05-22T04:47:01.998Z,44.99
2016-05-22T04:48:02.031Z,45.1
2016-05-22T04:49:02.050Z,45.29
2016-05-22T04:50:02.084Z,45.1
2016-05-22T04:51:02.103Z,45.08
2016-05-22T04:52:02.136Z,45.2
2016-05-22T04:53:02.154Z,45.39
2016-05-22T04:54:02.188Z,45.1
2016-05-22T04:55:02.206Z,45.1
2016-05-22T04:56:02.241Z,45.39
2016-05-22T04:57:02.258Z,45.2
2016-05-22T04:58:02.761Z,45.01
2016-05-22T04:59:02.311Z,44.91
2016-05-22T05:00:02.330Z,44.91
2016-05-22T05:01:02.363Z,44.72
2016-05-22T05:02:02.382Z,44.91
2016-05-22T05:03:02.430Z,44.72
2016-05-22T05:04:02.293Z,44.72
2016-05-22T05:05:02.468Z,44.72
2016-05-22T05:06:02.486Z,44.62
2016-05-22T05:07:02.520Z,44.62
2016-05-22T05:08:02.538Z,44.34
2016-05-22T05:09:02.572Z,44.62
2016-05-22T05:10:02.590Z,44.72
2016-05-22T05:11:02.641Z,44.43
2016-05-22T05:12:02.643Z,44.62
2016-05-22T05:13:02.676Z,44.62
2016-05-22T05:14:02.539Z,44.53
2016-05-22T05:15:02.729Z,44.62
2016-05-22T05:16:02.747Z,44.82
2016-05-22T05:17:02.782Z,44.72
2016-05-22T05:18:02.800Z,44.72
2016-05-22T05:19:02.833Z,44.72
2016-05-22T05:20:02.851Z,44.91
2016-05-22T05:21:02.886Z,44.53
2016-05-22T05:22:02.904Z,44.72
2016-05-22T05:23:02.939Z,44.43
2016-05-22T05:24:02.957Z,44.72
2016-05-22T05:25:02.818Z,44.53
2016-05-22T05:26:03.008Z,44.14
2016-05-22T05:27:02.887Z,44.34
2016-05-22T05:28:03.077Z,44.14
2016-05-22T05:29:03.080Z,44.14
2016-05-22T05:30:03.114Z,44.24
2016-05-22T05:31:03.131Z,44.24
2016-05-22T05:32:03.165Z,44.05
2016-05-22T05:33:03.028Z,44.14
2016-05-22T05:34:03.218Z,44.05
2016-05-22T05:35:03.236Z,44.34
2016-05-22T05:36:03.270Z,44.34
2016-05-22T05:37:03.289Z,44.05
2016-05-22T05:38:03.322Z,43.95
2016-05-22T05:39:03.341Z,44.24
2016-05-22T05:40:03.374Z,44.24
2016-05-22T05:41:03.393Z,44.14
2016-05-22T05:42:03.427Z,44.24
2016-05-22T05:43:03.446Z,44.34
2016-05-22T05:44:03.479Z,44.24
2016-05-22T05:45:03.497Z,44.17
2016-05-22T05:46:03.531Z,44.14
2016-05-22T05:47:03.549Z,44.05
2016-05-22T05:48:03.583Z,44.14
2016-05-22T05:49:03.602Z,44.43
2016-05-22T05:50:03.636Z,44.43
2016-05-22T05:51:03.654Z,44.14
2016-05-22T05:52:03.687Z,44.65
2016-05-22T05:53:03.707Z,43.59
2016-05-22T05:54:03.584Z,43.68
2016-05-22T05:55:03.759Z,43.4
2016-05-22T05:56:03.792Z,43.4
2016-05-22T05:57:03.811Z,43.68
2016-05-22T05:58:04.423Z,43.59
2016-05-22T05:59:03.863Z,43.78
2016-05-22T06:00:03.897Z,43.78
2016-05-22T06:01:03.916Z,43.88
2016-05-22T06:02:03.949Z,43.68
2016-05-22T06:03:03.983Z,43.78
2016-05-22T06:04:04.001Z,43.49
2016-05-22T06:05:04.036Z,43.59
2016-05-22T06:06:03.897Z,43.68
2016-05-22T06:07:04.072Z,43.68
2016-05-22T06:08:04.106Z,43.68
2016-05-22T06:09:04.140Z,43.78
2016-05-22T06:10:04.190Z,43.4
2016-05-22T06:11:04.193Z,43.11
2016-05-22T06:12:04.210Z,43.3
2016-05-22T06:13:04.104Z,43.3
2016-05-22T06:14:04.263Z,43.3
2016-05-22T06:15:04.297Z,43.11
2016-05-22T06:16:04.315Z,43.2
2016-05-22T06:17:04.349Z,43.13
2016-05-22T06:18:04.383Z,43.41
2016-05-22T06:19:04.402Z,43.51
2016-05-22T06:20:04.435Z,43.03
2016-05-22T06:21:04.453Z,42.93
2016-05-22T06:22:04.487Z,42.93
2016-05-22T06:23:04.521Z,43.03
2016-05-22T06:24:04.556Z,42.74
2016-05-22T06:25:04.574Z,43.23
2016-05-22T06:26:04.608Z,43.13
2016-05-22T06:27:04.625Z,43.13
2016-05-22T06:28:04.660Z,43.32
2016-05-22T06:29:04.678Z,42.84
2016-05-22T06:30:04.540Z,42.55
2016-05-22T06:31:04.731Z,42.55
2016-05-22T06:32:04.750Z,42.65
2016-05-22T06:33:04.626Z,42.57
2016-05-22T06:34:04.800Z,42.26
2016-05-22T06:35:04.835Z,42.46
2016-05-22T06:36:04.853Z,42.16
2016-05-22T06:37:04.888Z,42.36
2016-05-22T06:38:04.905Z,41.8
2016-05-22T06:39:04.954Z,41.89
2016-05-22T06:40:04.973Z,41.88
2016-05-22T06:41:04.991Z,42.09
2016-05-22T06:42:05.026Z,41.89
2016-05-22T06:43:05.075Z,41.51
2016-05-22T06:44:05.078Z,41.41
2016-05-22T06:45:05.096Z,41.51
2016-05-22T06:46:05.129Z,41.51
2016-05-22T06:47:05.149Z,41.22
2016-05-22T06:48:05.182Z,41.13
2016-05-22T06:49:05.201Z,41.03
2016-05-22T06:50:05.235Z,41.22
2016-05-22T06:51:05.253Z,41.13
2016-05-22T06:52:05.286Z,40.94
2016-05-22T06:53:05.320Z,40.84
2016-05-22T06:54:05.339Z,41.03
2016-05-22T06:55:05.373Z,40.94
2016-05-22T06:56:05.392Z,40.76
2016-05-22T06:57:05.269Z,40.37
2016-05-22T06:58:05.459Z,40.66
2016-05-22T06:59:05.478Z,40.28
2016-05-22T07:00:05.511Z,40.09
2016-05-22T07:01:05.531Z,39.61
2016-05-22T07:02:05.564Z,39.41
2016-05-22T07:03:05.582Z,39.79
2016-05-22T07:04:05.616Z,39.99
2016-05-22T07:05:05.650Z,39.79
2016-05-22T07:06:05.668Z,39.79
2016-05-22T07:07:05.686Z,39.51
2016-05-22T07:08:05.721Z,39.51
2016-05-22T07:09:05.755Z,39.51
2016-05-22T07:10:05.616Z,39.31
2016-05-22T07:11:05.807Z,39.41
2016-05-22T07:12:05.825Z,39.51
2016-05-22T07:13:05.702Z,39.22
2016-05-22T07:14:05.893Z,39.31
2016-05-22T07:15:05.911Z,39.31
2016-05-22T07:16:05.945Z,39.31
2016-05-22T07:17:05.963Z,39.31
2016-05-22T07:18:05.998Z,39.53
2016-05-22T07:19:06.016Z,39.51
2016-05-22T07:20:06.049Z,39.22
2016-05-22T07:21:06.084Z,39.12
2016-05-22T07:22:06.102Z,39.03
2016-05-22T07:23:06.137Z,39.04
2016-05-22T07:24:06.154Z,39.12
2016-05-22T07:25:06.188Z,38.76
2016-05-22T07:26:06.207Z,39.34
2016-05-22T07:27:06.240Z,38.66
2016-05-22T07:28:06.509Z,39.04
2016-05-22T07:29:06.292Z,38.76
2016-05-22T07:30:06.326Z,38.85
2016-05-22T07:31:06.345Z,38.76
2016-05-22T07:32:06.379Z,38.56
2016-05-22T07:33:06.397Z,38.85
2016-05-22T07:34:06.430Z,39.04
2016-05-22T07:35:06.449Z,38.95
2016-05-22T07:36:06.484Z,39.14
2016-05-22T07:37:06.517Z,38.95
2016-05-22T07:38:06.583Z,38.76
2016-05-22T07:39:06.413Z,38.76
2016-05-22T07:40:06.588Z,38.66
2016-05-22T07:41:06.621Z,38.95
2016-05-22T07:42:06.640Z,38.95
2016-05-22T07:43:07.002Z,38.37
2016-05-22T07:44:06.708Z,38.56
2016-05-22T07:45:06.726Z,38.18
2016-05-22T07:46:06.760Z,37.89
2016-05-22T07:47:06.793Z,38.29
2016-05-22T07:48:06.812Z,37.89
2016-05-22T07:49:06.847Z,38.01
2016-05-22T07:50:06.865Z,37.71
2016-05-22T07:51:06.898Z,37.91
2016-05-22T07:52:06.760Z,38.01
2016-05-22T07:53:06.951Z,37.81
2016-05-22T07:54:06.984Z,37.62
2016-05-22T07:55:07.004Z,37.33
2016-05-22T07:56:07.037Z,37.23
2016-05-22T07:57:07.070Z,37.33
2016-05-22T07:58:07.090Z,37.54
2016-05-22T07:59:07.123Z,37.04
2016-05-22T08:00:07.141Z,37.06
2016-05-22T08:01:07.176Z,37.25
2016-05-22T08:02:07.195Z,36.96
2016-05-22T08:03:07.228Z,36.67
2016-05-22T08:04:07.261Z,36.67
2016-05-22T08:05:07.125Z,37.06
2016-05-22T08:06:07.314Z,36.77
2016-05-22T08:07:07.332Z,36.96
2016-05-22T08:08:07.366Z,36.48
2016-05-22T08:09:07.385Z,36.77
2016-05-22T08:10:07.419Z,36.96
2016-05-22T08:11:07.297Z,37.15
2016-05-22T08:12:07.471Z,36.57
2016-05-22T08:13:07.614Z,36.57
2016-05-22T08:14:07.538Z,37.15
2016-05-22T08:15:07.557Z,37.13
2016-05-22T08:16:07.590Z,37.04
2016-05-22T08:17:07.609Z,37.62
2016-05-22T08:18:07.643Z,37.52
2016-05-22T08:19:07.677Z,37.52
2016-05-22T08:20:07.695Z,37.23
2016-05-22T08:21:07.729Z,37.13
2016-05-22T08:22:07.748Z,37.33
2016-05-22T08:23:07.782Z,37.33
2016-05-22T08:24:07.815Z,37.62
2016-05-22T08:25:07.834Z,37.62
2016-05-22T08:26:07.868Z,37.33
2016-05-22T08:27:07.886Z,38.01
2016-05-22T08:28:08.123Z,37.91
2016-05-22T08:29:07.954Z,38.01
2016-05-22T08:30:07.988Z,38.2
2016-05-22T08:31:08.006Z,37.81
2016-05-22T08:32:08.025Z,37.91
2016-05-22T08:33:08.058Z,38.01
2016-05-22T08:34:08.078Z,37.91
2016-05-22T08:35:08.111Z,37.81
2016-05-22T08:36:08.129Z,38.28
2016-05-22T08:37:08.163Z,38.28
2016-05-22T08:38:08.197Z,38.08
2016-05-22T08:39:08.215Z,37.98
2016-05-22T08:40:08.250Z,38.28
2016-05-22T08:41:08.283Z,38.46
2016-05-22T08:42:08.302Z,38.28
2016-05-22T08:43:08.179Z,38.76
2016-05-22T08:44:08.354Z,38.76
2016-05-22T08:45:08.388Z,38.95
2016-05-22T08:46:08.250Z,38.46
2016-05-22T08:47:08.440Z,38.85
2016-05-22T08:48:08.458Z,39.14
2016-05-22T08:49:08.492Z,39.14
2016-05-22T08:50:08.526Z,38.95
2016-05-22T08:51:08.544Z,39.14
2016-05-22T08:52:08.578Z,38.95
2016-05-22T08:53:08.596Z,39.22
2016-05-22T08:54:08.474Z,39.03
2016-05-22T08:55:08.665Z,39.41
2016-05-22T08:56:08.682Z,39.41
2016-05-22T08:57:08.717Z,39.51
2016-05-22T08:58:08.798Z,39.51
2016-05-22T08:59:08.769Z,39.61
2016-05-22T09:00:08.787Z,40.19
2016-05-22T09:01:08.820Z,39.89
2016-05-22T09:02:08.839Z,39.79
2016-05-22T09:03:08.889Z,39.79
2016-05-22T09:04:08.908Z,39.99
2016-05-22T09:05:08.925Z,39.99
2016-05-22T09:06:08.959Z,40.37
2016-05-22T09:07:08.978Z,40.76
2016-05-22T09:08:09.012Z,40.66
2016-05-22T09:09:09.030Z,40.28
2016-05-22T09:10:09.080Z,40.57
2016-05-22T09:11:09.114Z,40.94
2016-05-22T09:12:08.960Z,41.03
2016-05-22T09:13:09.244Z,41.13
2016-05-22T09:14:09.169Z,40.64
2016-05-22T09:15:09.219Z,41.03
2016-05-22T09:16:09.236Z,41.51
2016-05-22T09:17:09.254Z,41.32
2016-05-22T09:18:09.304Z,41.41
2016-05-22T09:19:09.307Z,41.41
2016-05-22T09:20:09.341Z,41.32
2016-05-22T09:21:09.359Z,41.03
2016-05-22T09:22:09.393Z,41.41
2016-05-22T09:23:09.427Z,41.61
2016-05-22T09:24:09.462Z,41.61
2016-05-22T09:25:09.479Z,41.99
2016-05-22T09:26:09.342Z,42.28
2016-05-22T09:27:09.532Z,42.09
2016-05-22T09:28:10.331Z,41.97
2016-05-22T09:29:09.584Z,41.97
2016-05-22T09:30:09.618Z,41.68
2016-05-22T09:31:09.637Z,41.97
2016-05-22T09:32:09.671Z,42.16
2016-05-22T09:33:09.689Z,42.26
2016-05-22T09:34:09.722Z,42.46
2016-05-22T09:35:09.741Z,42.46
2016-05-22T09:36:09.775Z,42.16
2016-05-22T09:37:09.808Z,42.26
2016-05-22T09:38:09.827Z,42.26
2016-05-22T09:39:09.861Z,42.07
2016-05-22T09:40:09.880Z,42.46
2016-05-22T09:41:09.913Z,42.55
2016-05-22T09:42:09.931Z,42.55
2016-05-22T09:43:09.966Z,42.84
2016-05-22T09:44:09.999Z,43.23
2016-05-22T09:45:10.018Z,43.13
2016-05-22T09:46:09.880Z,43.13
2016-05-22T09:47:10.070Z,43.13
2016-05-22T09:48:10.104Z,43.32
2016-05-22T09:49:10.122Z,43.13
2016-05-22T09:50:10.000Z,43.03
2016-05-22T09:51:10.174Z,42.74
2016-05-22T09:52:10.208Z,43.13
2016-05-22T09:53:10.227Z,43.03
2016-05-22T09:54:10.261Z,42.84
2016-05-22T09:55:10.295Z,42.93
2016-05-22T09:56:10.313Z,43.03
2016-05-22T09:57:10.346Z,42.74
2016-05-22T09:58:10.365Z,43.13
2016-05-22T09:59:10.399Z,42.93
2016-05-22T10:00:10.261Z,43.23
2016-05-22T10:01:10.295Z,43.13
2016-05-22T10:02:10.470Z,42.93
2016-05-22T10:03:10.503Z,43.13
2016-05-22T10:04:10.537Z,43.13
2016-05-22T10:05:10.556Z,42.84
2016-05-22T10:06:10.590Z,43.13
2016-05-22T10:07:10.609Z,42.84
2016-05-22T10:08:10.642Z,43.32
2016-05-22T10:09:10.504Z,42.84
2016-05-22T10:10:10.694Z,43.51
2016-05-22T10:11:10.713Z,42.93
2016-05-22T10:12:10.747Z,42.74
2016-05-22T10:13:10.780Z,42.46
2016-05-22T10:14:10.814Z,42.65
2016-05-22T10:15:10.833Z,43.13
2016-05-22T10:16:10.851Z,43.03
2016-05-22T10:17:10.886Z,43.03
2016-05-22T10:18:10.902Z,42.84
2016-05-22T10:19:10.938Z,42.93
2016-05-22T10:20:10.955Z,43.23
2016-05-22T10:21:10.990Z,43.23
2016-05-22T10:22:11.024Z,43.03
2016-05-22T10:23:11.041Z,43.03
2016-05-22T10:24:10.919Z,43.03
2016-05-22T10:25:11.094Z,42.93
2016-05-22T10:26:10.971Z,42.74
2016-05-22T10:27:11.146Z,42.93
2016-05-22T10:28:11.024Z,42.93
2016-05-22T10:29:11.057Z,43.03
2016-05-22T10:30:11.232Z,43.03
2016-05-22T10:31:11.266Z,43.03
2016-05-22T10:32:11.285Z,43.51
2016-05-22T10:33:11.319Z,43.03
2016-05-22T10:34:11.337Z,43.03
2016-05-22T10:35:11.371Z,42.93
2016-05-22T10:36:11.406Z,42.93
2016-05-22T10:37:11.423Z,43.23
2016-05-22T10:38:11.442Z,42.84
2016-05-22T10:39:11.475Z,42.93
2016-05-22T10:40:11.494Z,43.23
2016-05-22T10:41:11.528Z,42.84
2016-05-22T10:42:11.390Z,42.76
2016-05-22T10:43:11.752Z,42.55
2016-05-22T10:44:11.614Z,42.46
2016-05-22T10:45:11.632Z,42.57
2016-05-22T10:46:11.667Z,42.67
2016-05-22T10:47:11.699Z,42.67
2016-05-22T10:48:11.718Z,43.13
2016-05-22T10:49:11.580Z,42.74
2016-05-22T10:50:11.771Z,42.65
2016-05-22T10:51:11.789Z,42.57
2016-05-22T10:52:11.823Z,42.28
2016-05-22T10:53:11.701Z,42.19
2016-05-22T10:54:11.875Z,42.28
2016-05-22T10:55:11.925Z,42.19
2016-05-22T10:56:11.944Z,42.38
2016-05-22T10:57:11.961Z,42.28
2016-05-22T10:58:11.995Z,42.38
2016-05-22T10:59:12.013Z,42.47
2016-05-22T11:00:12.048Z,42.28
2016-05-22T11:01:12.066Z,41.89
2016-05-22T11:02:12.100Z,42.28
2016-05-22T11:03:12.118Z,42.47
2016-05-22T11:04:12.152Z,42.38
2016-05-22T11:05:12.202Z,42.47
2016-05-22T11:06:12.220Z,42.38
2016-05-22T11:07:12.238Z,42.38
2016-05-22T11:08:12.256Z,42.19
2016-05-22T11:09:12.134Z,42.28
2016-05-22T11:10:12.324Z,41.89
2016-05-22T11:11:12.343Z,41.71
2016-05-22T11:12:12.377Z,41.89
2016-05-22T11:13:12.255Z,42.09
2016-05-22T11:14:12.428Z,42.19
2016-05-22T11:15:12.447Z,41.32
2016-05-22T11:16:12.481Z,41.51
2016-05-22T11:17:12.500Z,41.51
2016-05-22T11:18:12.533Z,41.32
2016-05-22T11:19:12.567Z,41.41
2016-05-22T11:20:12.585Z,41.03
2016-05-22T11:21:12.619Z,41.41
2016-05-22T11:22:12.638Z,41.41
2016-05-22T11:23:12.657Z,41.41
2016-05-22T11:24:12.535Z,41.22
2016-05-22T11:25:12.724Z,41.32
2016-05-22T11:26:12.743Z,41.41
2016-05-22T11:27:12.777Z,41.44
2016-05-22T11:28:13.310Z,41.34
2016-05-22T11:29:12.829Z,40.86
2016-05-22T11:30:12.706Z,40.76
2016-05-22T11:31:12.881Z,40.86
2016-05-22T11:32:12.915Z,41.05
2016-05-22T11:33:12.965Z,40.37
2016-05-22T11:34:12.968Z,40.66
2016-05-22T11:35:13.001Z,40.57
2016-05-22T11:36:13.020Z,40.95
2016-05-22T11:37:13.054Z,40.47
2016-05-22T11:38:13.072Z,40.09
2016-05-22T11:39:13.106Z,40.37
2016-05-22T11:40:13.123Z,39.99
2016-05-22T11:41:13.158Z,40.09
2016-05-22T11:42:13.192Z,39.99
2016-05-22T11:43:13.445Z,39.89
2016-05-22T11:44:13.244Z,39.79
2016-05-22T11:45:13.278Z,39.61
2016-05-22T11:46:13.297Z,39.61
2016-05-22T11:47:13.331Z,39.61
2016-05-22T11:48:13.349Z,39.99
2016-05-22T11:49:13.382Z,39.7
2016-05-22T11:50:13.401Z,39.79
2016-05-22T11:51:13.435Z,39.99
2016-05-22T11:52:13.469Z,39.99
2016-05-22T11:53:13.488Z,40.01
2016-05-22T11:54:13.521Z,39.89
2016-05-22T11:55:13.539Z,39.91
2016-05-22T11:56:13.574Z,39.89
2016-05-22T11:57:13.607Z,40.11
2016-05-22T11:58:13.641Z,39.79
2016-05-22T11:59:13.643Z,39.62
2016-05-22T12:00:13.677Z,39.43
2016-05-22T12:01:13.571Z,39.43
2016-05-22T12:02:13.730Z,39.12
2016-05-22T12:03:13.765Z,39.14
2016-05-22T12:04:13.798Z,39.62
2016-05-22T12:05:13.816Z,39.43
2016-05-22T12:06:13.850Z,39.43
2016-05-22T12:07:13.868Z,39.43
2016-05-22T12:08:13.746Z,39.43
2016-05-22T12:09:13.780Z,39.14
2016-05-22T12:10:13.954Z,39.62
2016-05-22T12:11:13.832Z,39.34
2016-05-22T12:12:14.007Z,39.53
2016-05-22T12:13:14.182Z,39.34
2016-05-22T12:14:14.074Z,39.34
2016-05-22T12:15:14.093Z,39.43
2016-05-22T12:16:14.111Z,39.43
2016-05-22T12:17:14.145Z,38.85
2016-05-22T12:18:14.180Z,39.14
2016-05-22T12:19:14.197Z,38.95
2016-05-22T12:20:14.231Z,39.04
2016-05-22T12:21:14.249Z,38.76
2016-05-22T12:22:14.283Z,39.04
2016-05-22T12:23:14.146Z,39.14
2016-05-22T12:24:14.336Z,38.76
2016-05-22T12:25:14.230Z,38.85
2016-05-22T12:26:14.405Z,39.04
2016-05-22T12:27:14.266Z,38.66
2016-05-22T12:28:14.456Z,39.14
2016-05-22T12:29:14.490Z,38.95
2016-05-22T12:30:14.508Z,39.04
2016-05-22T12:31:14.526Z,39.34
2016-05-22T12:32:14.560Z,38.56
2016-05-22T12:33:14.579Z,38.66
2016-05-22T12:34:14.456Z,38.85
2016-05-22T12:35:14.646Z,38.85
2016-05-22T12:36:14.678Z,38.76
2016-05-22T12:37:14.733Z,38.95
2016-05-22T12:38:14.788Z,38.97
2016-05-22T12:39:14.669Z,38.97
2016-05-22T12:40:14.863Z,38.49
2016-05-22T12:41:14.908Z,38.49
2016-05-22T12:42:14.949Z,38.2
2016-05-22T12:43:14.819Z,38.39
2016-05-22T12:44:15.015Z,38.39
2016-05-22T12:45:15.041Z,37.91
2016-05-22T12:46:15.078Z,38.2
2016-05-22T12:47:15.115Z,37.91
2016-05-22T12:48:15.136Z,37.81
2016-05-22T12:49:15.173Z,38.39
2016-05-22T12:50:15.208Z,38.1
2016-05-22T12:51:15.229Z,38.39
2016-05-22T12:52:15.263Z,38.01
2016-05-22T12:53:15.283Z,38.2
2016-05-22T12:54:15.317Z,38.1
2016-05-22T12:55:15.352Z,38.1